Terminal Aerodrome Forecast
Issued by NWS Albuquerque, NM

Home | Current Version | Previous Version | Text Only | Print | Product List | Glossary On
Versions: 1 2 3 4 5 6 7 8 9 10 11 12 13
000
FTUS45 KABQ 212300
TAFABQ
TAF
KABQ 212320Z 2200/2224 30008KT P6SM FEW050 SCT120
     FM220200 33007KT P6SM SCT050 SCT120
     FM220900 29007KT P6SM BKN050 BKN090
     FM221700 31015G25KT P6SM SCT045 BKN090
     FM222300 32022G32KT P6SM SCT050 BKN090=

USA.gov is the U.S. government's official web portal to all federal, state and local government web resources and services.